Time;durP1;ratioP1;P1;durP2;ratioP2;P2;SDS_P1;SDS_P2;PMS_P1;PMS_P2;Temp;Humidity;BMP_temperature;BMP_pressure;BME280_temperature;BME280_humidity;BME280_pressure;Samples;Min_cycle;Max_cycle;Signal;HPM_P1;HPM_P2
2022/08/19 00:00:34;;;;;;;11.83;9.60;;;;;;;24.97;58.23;99845.95;1791902;80;21133;-79
2022/08/19 00:03:06;;;;;;;10.53;8.80;;;;;;;24.93;58.26;99850.81;1791843;80;22152;-79
2022/08/19 00:05:34;;;;;;;11.88;9.40;;;;;;;24.93;58.34;99854.32;1765524;80;21590;-79
2022/08/19 00:08:01;;;;;;;12.98;9.33;;;;;;;24.95;58.23;99850.15;1791999;80;21043;-79
2022/08/19 00:10:29;;;;;;;12.90;9.60;;;;;;;24.96;58.17;99845.11;1765919;80;21015;-79
2022/08/19 00:12:56;;;;;;;13.20;10.45;;;;;;;24.97;58.16;99841.92;1752962;78;21141;-79
2022/08/19 00:15:23;;;;;;;11.05;9.83;;;;;;;24.96;58.14;99838.92;1770328;78;21035;-78
2022/08/19 00:17:50;;;;;;;11.70;9.48;;;;;;;24.97;58.13;99833.41;1765465;78;21038;-78
2022/08/19 00:20:21;;;;;;;13.68;10.18;;;;;;;24.97;58.05;99821.34;1749260;78;21024;-78
2022/08/19 00:22:48;;;;;;;13.28;10.40;;;;;;;24.97;58.09;99819.14;1777867;78;20999;-79
2022/08/19 00:25:16;;;;;;;12.63;9.78;;;;;;;24.95;58.21;99802.41;1773346;78;21936;-78
2022/08/19 00:27:44;;;;;;;11.10;10.08;;;;;;;24.91;58.37;99792.48;1795447;79;21015;-79
2022/08/19 00:30:12;;;;;;;11.33;9.55;;;;;;;24.88;58.49;99794.16;1773430;78;21035;-79
2022/08/19 00:32:39;;;;;;;10.28;9.25;;;;;;;24.84;58.48;99789.64;1795496;78;21071;-80
2022/08/19 00:35:09;;;;;;;10.28;9.13;;;;;;;24.82;58.50;99789.46;1795770;78;21015;-78
2022/08/19 00:37:36;;;;;;;10.10;9.08;;;;;;;24.82;58.55;99801.02;1795664;79;21136;-79
2022/08/19 00:40:06;;;;;;;12.60;8.95;;;;;;;24.82;58.51;99801.52;1795635;78;20988;-79
2022/08/19 00:42:33;;;;;;;10.32;8.98;;;;;;;24.82;58.44;99804.20;1785144;78;21459;-78
2022/08/19 00:45:01;;;;;;;10.88;9.78;;;;;;;24.80;58.41;99800.84;1744619;81;21041;-78
2022/08/19 00:47:28;;;;;;;10.38;9.08;;;;;;;24.79;58.39;99808.55;1740915;81;21023;-78
2022/08/19 00:49:58;;;;;;;13.40;9.58;;;;;;;24.77;58.38;99814.06;1764278;81;21890;-83
2022/08/19 00:52:30;;;;;;;10.98;9.80;;;;;;;24.76;58.38;99821.77;1737214;81;21595;-80
2022/08/19 00:54:59;;;;;;;11.45;9.40;;;;;;;24.75;58.27;99815.22;1795744;79;21067;-79
2022/08/19 00:57:34;;;;;;;14.18;10.25;;;;;;;24.74;58.36;99800.16;1770558;78;21088;-79
2022/08/19 01:00:08;;;;;;;11.57;9.83;;;;;;;24.73;58.41;99787.27;1756213;80;21055;-81
2022/08/19 01:02:35;;;;;;;12.40;9.38;;;;;;;24.73;58.64;99773.03;1774685;79;21095;-83
2022/08/19 01:05:08;;;;;;;11.85;9.38;;;;;;;24.70;58.95;99768.83;1763242;80;21073;-78
2022/08/19 01:07:37;;;;;;;11.08;8.93;;;;;;;24.65;58.96;99765.29;1768648;80;21004;-83
2022/08/19 01:10:10;;;;;;;12.07;8.83;;;;;;;24.58;59.07;99757.59;1759239;79;20994;-78
2022/08/19 01:12:38;;;;;;;12.73;9.15;;;;;;;24.52;59.24;99761.39;1745889;80;21116;-79
2022/08/19 01:15:12;;;;;;;12.63;9.30;;;;;;;24.45;59.25;99763.39;1773252;80;21553;-78
2022/08/19 01:17:42;;;;;;;9.93;8.90;;;;;;;24.38;59.41;99755.62;1772660;79;21015;-82
2022/08/19 01:20:17;;;;;;;14.65;8.78;;;;;;;24.34;59.59;99760.14;1753621;80;21039;-80
2022/08/19 01:22:52;;;;;;;14.20;9.00;;;;;;;24.29;59.77;99767.81;1762545;80;21142;-78
2022/08/19 01:25:24;;;;;;;9.53;8.28;;;;;;;24.25;59.86;99772.66;1749606;81;21061;-78
2022/08/19 01:27:52;;;;;;;10.03;8.90;;;;;;;24.23;59.89;99777.33;1769153;80;21148;-78
2022/08/19 01:30:24;;;;;;;9.68;8.58;;;;;;;24.22;60.00;99787.68;1754718;81;21550;-78
2022/08/19 01:32:53;;;;;;;10.32;9.20;;;;;;;24.22;60.07;99791.22;1732982;79;21020;-78
2022/08/19 01:35:23;;;;;;;11.22;9.05;;;;;;;24.23;60.07;99796.07;1745190;81;21015;-78
2022/08/19 01:37:58;;;;;;;11.68;9.18;;;;;;;24.23;60.15;99786.20;1773801;80;21047;-78
2022/08/19 01:40:32;;;;;;;10.88;9.15;;;;;;;24.23;60.06;99771.97;1768244;80;21592;-83
2022/08/19 01:43:01;;;;;;;11.03;9.03;;;;;;;24.21;60.44;99774.80;1768831;80;21055;-78
2022/08/19 01:45:31;;;;;;;9.95;8.88;;;;;;;24.17;60.64;99772.11;1768611;80;21066;-78
2022/08/19 01:47:59;;;;;;;9.48;8.48;;;;;;;24.13;60.72;99763.21;1769020;80;21027;-78
2022/08/19 01:50:27;;;;;;;11.73;8.43;;;;;;;24.10;60.81;99762.20;1768659;80;20999;-78
2022/08/19 01:52:54;;;;;;;11.22;8.13;;;;;;;24.09;60.87;99745.80;1768683;79;21300;-81
2022/08/19 01:55:23;;;;;;;10.38;8.40;;;;;;;24.08;60.89;99724.03;1768580;80;21503;-78
2022/08/19 01:57:55;;;;;;;10.35;8.55;;;;;;;24.08;60.85;99707.97;1769168;80;21003;-78
2022/08/19 02:00:27;;;;;;;10.88;8.20;;;;;;;24.07;60.93;99697.77;1768692;80;21035;-78
2022/08/19 02:02:54;;;;;;;11.03;8.20;;;;;;;24.06;60.95;99686.73;1769006;80;21320;-78
2022/08/19 02:05:21;;;;;;;9.70;8.70;;;;;;;24.03;60.86;99684.38;1768714;80;21097;-78
2022/08/19 02:07:48;;;;;;;9.55;8.53;;;;;;;24.00;60.93;99683.36;1768779;80;21524;-78
2022/08/19 02:10:21;;;;;;;11.28;8.45;;;;;;;24.00;61.02;99682.02;1768726;80;21055;-78
2022/08/19 02:12:49;;;;;;;12.28;8.93;;;;;;;24.00;61.08;99678.01;1770694;80;21038;-78
2022/08/19 02:15:19;;;;;;;10.13;9.05;;;;;;;23.97;61.10;99686.33;1776014;80;21114;-78
2022/08/19 02:17:47;;;;;;;9.70;8.70;;;;;;;23.92;61.21;99688.17;1768891;80;21751;-78
2022/08/19 02:20:16;;;;;;;14.85;8.40;;;;;;;23.87;61.37;99705.20;1768474;80;21516;-78
2022/08/19 02:22:44;;;;;;;13.15;9.58;;;;;;;23.84;61.50;99696.16;1768954;79;21556;-78
2022/08/19 02:25:14;;;;;;;10.15;8.65;;;;;;;23.81;61.62;99692.47;1765710;79;20999;-78
2022/08/19 02:27:42;;;;;;;;;;;;;;;23.78;61.74;99695.47;1768715;79;20996;-78
2022/08/19 02:30:13;;;;;;;11.93;8.38;;;;;;;23.74;62.18;99698.10;1765714;80;21245;-81
2022/08/19 02:32:41;;;;;;;9.28;8.03;;;;;;;23.69;62.12;99703.88;1766018;80;21484;-78
2022/08/19 02:35:09;;;;;;;11.10;8.85;;;;;;;23.66;62.28;99711.39;1765708;80;21007;-82
2022/08/19 02:40:21;;;;;;;9.55;8.40;;;;;;;23.58;62.52;99695.66;1765829;80;21027;-78
2022/08/19 02:42:48;;;;;;;11.50;8.83;;;;;;;23.48;62.54;99700.26;1765718;79;21068;-78
2022/08/19 02:45:15;;;;;;;12.85;8.63;;;;;;;23.44;62.65;99706.06;1765705;80;21055;-78
2022/08/19 02:47:43;;;;;;;9.75;8.75;;;;;;;23.39;62.75;99702.55;1765699;80;21039;-78
2022/08/19 02:50:10;;;;;;;9.93;8.88;;;;;;;23.34;62.91;99704.34;1765770;80;21007;-79
2022/08/19 02:52:37;;;;;;;11.70;9.35;;;;;;;23.31;63.10;99695.30;1766100;80;21157;-78
2022/08/19 02:55:06;;;;;;;10.25;9.25;;;;;;;23.30;63.36;99694.94;1775073;79;21931;-78
2022/08/19 02:57:33;;;;;;;10.98;8.98;;;;;;;23.24;63.45;99700.91;1766180;80;21078;-78
2022/08/19 03:00:01;;;;;;;11.90;9.20;;;;;;;23.20;63.57;99696.05;1765776;79;21010;-78
2022/08/19 03:02:28;;;;;;;12.82;9.35;;;;;;;23.09;63.60;99697.13;1765941;80;21051;-77
2022/08/19 03:04:55;;;;;;;11.65;8.95;;;;;;;22.97;63.80;99701.84;1765801;80;21555;-82
2022/08/19 03:07:22;;;;;;;11.45;9.10;;;;;;;22.86;64.05;99708.27;1766053;79;21061;-78
2022/08/19 03:09:49;;;;;;;13.38;8.85;;;;;;;22.79;64.45;99712.52;1765655;80;21034;-78
2022/08/19 03:12:16;;;;;;;10.55;8.75;;;;;;;22.70;64.72;99721.45;1766001;79;21449;-78
2022/08/19 03:14:45;;;;;;;10.25;9.15;;;;;;;22.65;64.94;99726.41;1775279;80;21087;-78
2022/08/19 03:17:12;;;;;;;10.35;9.35;;;;;;;22.54;65.11;99722.12;1765978;79;21062;-78
2022/08/19 03:19:39;;;;;;;10.08;8.88;;;;;;;22.43;65.24;99729.00;1765812;80;21075;-82
2022/08/19 03:22:07;;;;;;;13.22;9.88;;;;;;;22.33;65.54;99734.37;1765581;80;21036;-83
2022/08/19 03:24:35;;;;;;;10.85;8.38;;;;;;;22.32;66.04;99723.37;1765868;79;21054;-78
2022/08/19 03:27:04;;;;;;;10.50;9.38;;;;;;;22.27;65.90;99735.81;1765695;79;21561;-78
2022/08/19 03:29:32;;;;;;;12.67;9.40;;;;;;;22.19;66.13;99731.70;1766360;79;21465;-78
2022/08/19 03:32:01;;;;;;;14.23;9.60;;;;;;;22.13;66.29;99723.43;1765788;79;21730;-78
2022/08/19 03:34:30;;;;;;;10.63;9.35;;;;;;;22.02;66.42;99722.62;1766147;80;21039;-78
2022/08/19 03:37:01;;;;;;;10.05;9.05;;;;;;;21.98;66.68;99724.42;1765830;80;21082;-81
2022/08/19 03:39:28;;;;;;;11.18;9.13;;;;;;;21.91;66.78;99716.14;1774088;80;21081;-78
2022/08/19 03:41:57;;;;;;;11.80;9.58;;;;;;;21.83;66.95;99714.20;1779006;80;21057;-78
2022/08/19 03:44:24;;;;;;;10.70;8.38;;;;;;;21.80;67.17;99719.83;1771296;80;21155;-78
2022/08/19 03:46:59;;;;;;;9.65;8.65;;;;;;;21.75;67.33;99723.41;1774809;80;21042;-79
2022/08/19 03:49:27;;;;;;;10.60;9.40;;;;;;;21.71;67.57;99735.38;1785024;78;21605;-78
2022/08/19 03:51:57;;;;;;;10.18;8.48;;;;;;;21.69;67.69;99734.67;1789787;80;21066;-83
2022/08/19 03:54:27;;;;;;;11.83;8.93;;;;;;;21.67;67.90;99734.47;1755370;81;21101;-79
2022/08/19 03:56:55;;;;;;;;;;;;;;;21.63;67.92;99733.92;1761475;80;21972;-79
2022/08/19 03:59:30;;;;;;;9.73;8.60;;;;;;;21.59;68.45;99729.38;1762837;81;20204;-78
2022/08/19 04:02:01;;;;;;;10.60;8.50;;;;;;;21.55;68.36;99727.97;1754495;81;21000;-82
2022/08/19 04:04:29;;;;;;;10.53;8.23;;;;;;;21.54;68.56;99725.46;1763990;79;21095;-78
2022/08/19 04:06:56;;;;;;;10.03;8.93;;;;;;;21.52;68.74;99730.09;1761397;81;21293;-78
2022/08/19 04:09:25;;;;;;;11.00;8.63;;;;;;;21.51;68.90;99735.08;1746127;79;21391;-78
2022/08/19 04:11:55;;;;;;;9.75;8.58;;;;;;;21.50;69.08;99734.72;1753114;81;21069;-78
2022/08/19 04:14:28;;;;;;;9.95;8.63;;;;;;;21.49;69.23;99742.37;1750959;81;20996;-78
2022/08/19 04:16:55;;;;;;;9.38;8.48;;;;;;;21.51;69.48;99743.92;1749219;81;21023;-78
2022/08/19 04:19:23;;;;;;;11.30;8.98;;;;;;;21.56;69.77;99741.67;1755800;81;21054;-78
2022/08/19 04:21:53;;;;;;;11.48;9.05;;;;;;;21.61;69.90;99740.72;1758667;79;21122;-78
2022/08/19 04:24:22;;;;;;;11.15;9.35;;;;;;;21.65;70.16;99735.13;1743228;81;21062;-78
2022/08/19 04:26:50;;;;;;;9.90;8.90;;;;;;;21.70;70.35;99738.17;1750042;81;21462;-79
2022/08/19 04:29:24;;;;;;;11.73;9.45;;;;;;;21.71;70.25;99749.21;1768877;81;21083;-78
2022/08/19 04:31:54;;;;;;;9.55;8.55;;;;;;;21.74;70.35;99744.42;1756765;81;21064;-79
2022/08/19 04:34:24;;;;;;;10.53;9.00;;;;;;;21.82;70.37;99739.20;1762397;81;26651;-77
2022/08/19 04:36:54;;;;;;;14.25;9.35;;;;;;;21.90;70.37;99737.65;1772674;80;21035;-78
2022/08/19 04:42:38;;;;;;;9.65;8.70;;;;;;;21.95;70.25;99745.56;1759460;81;21256;-81
2022/08/19 04:44:41;;;;;;;14.43;9.35;;;;;;;22.05;70.14;99749.52;1764320;81;21110;-81
2022/08/19 04:47:08;;;;;;;10.85;8.93;;;;;;;22.10;70.11;99745.91;1764002;80;21236;-81
2022/08/19 04:49:36;;;;;;;10.55;9.45;;;;;;;22.14;70.07;99743.78;1766917;80;20962;-79
2022/08/19 04:52:03;;;;;;;12.50;9.23;;;;;;;22.20;70.31;99741.92;1763278;80;21654;-78
2022/08/19 04:54:30;;;;;;;12.85;9.40;;;;;;;22.22;70.43;99734.08;1761692;79;21297;-79
2022/08/19 04:56:57;;;;;;;10.45;9.35;;;;;;;22.24;70.52;99734.78;1768835;80;22249;-89
2022/08/19 04:59:24;;;;;;;11.05;9.65;;;;;;;22.25;70.36;99730.28;1763644;80;22539;-78
2022/08/19 05:01:59;;;;;;;13.32;9.13;;;;;;;22.29;70.44;99731.67;1761192;80;21062;-82
2022/08/19 05:04:30;;;;;;;10.72;9.05;;;;;;;22.31;70.37;99728.84;1761251;80;21031;-79
2022/08/19 05:06:58;;;;;;;10.55;8.88;;;;;;;22.29;70.18;99725.00;1767079;80;20935;-81
2022/08/19 05:09:25;;;;;;;12.33;9.40;;;;;;;22.29;70.14;99723.67;1767113;80;21043;-81
2022/08/19 05:11:52;;;;;;;12.40;9.50;;;;;;;22.32;70.20;99714.52;1770220;79;21082;-79
2022/08/19 05:14:21;;;;;;;9.83;8.85;;;;;;;22.35;70.21;99712.39;1765871;80;21086;-79
2022/08/19 05:16:48;;;;;;;10.83;9.57;;;;;;;22.37;70.21;99714.92;1768931;79;21457;-79
2022/08/19 05:24:46;;;;;;;12.15;9.98;;;;;;;22.49;70.20;99709.20;1752538;80;21968;-79
2022/08/19 05:27:13;;;;;;;11.95;9.78;;;;;;;22.54;70.17;99710.09;1739484;81;21018;-82
2022/08/19 05:29:40;;;;;;;10.55;9.08;;;;;;;22.59;69.94;99713.16;1739328;81;21594;-81
2022/08/19 05:32:10;;;;;;;11.03;9.10;;;;;;;22.63;69.93;99714.52;1739569;81;21038;-81
2022/08/19 05:34:38;;;;;;;12.58;9.33;;;;;;;22.67;69.84;99716.42;1739595;81;21057;-81
2022/08/19 05:37:07;;;;;;;11.30;8.83;;;;;;;22.70;69.77;99712.94;1739849;81;22029;-80
2022/08/19 05:39:37;;;;;;;12.93;9.60;;;;;;;22.75;69.76;99726.33;1741105;80;21488;-80
2022/08/19 05:42:08;;;;;;;13.13;10.03;;;;;;;22.78;69.62;99739.38;1712559;81;21837;-81
2022/08/19 05:44:43;;;;;;;10.10;9.08;;;;;;;22.81;69.55;99742.61;1739679;81;20983;-81
2022/08/19 05:47:09;;;;;;;10.55;9.55;;;;;;;22.84;69.53;99753.49;1739653;80;21058;-79
2022/08/19 05:49:37;;;;;;;10.65;9.55;;;;;;;22.88;69.57;99748.17;1739686;81;21102;-80
2022/08/19 05:52:08;;;;;;;10.93;9.78;;;;;;;22.92;69.68;99746.39;1740723;80;21066;-77
2022/08/19 05:54:41;;;;;;;11.70;9.55;;;;;;;22.95;69.53;99746.59;1739184;81;21108;-78
2022/08/19 05:57:09;;;;;;;11.93;9.78;;;;;;;22.98;69.60;99758.84;1739945;80;21053;-79
2022/08/19 05:59:36;;;;;;;12.30;10.40;;;;;;;23.01;69.41;99770.05;1740590;80;21082;-77
2022/08/19 06:02:06;;;;;;;12.40;10.05;;;;;;;23.04;69.18;99771.59;1713535;80;21737;-78
2022/08/19 06:04:34;;;;;;;12.78;10.08;;;;;;;23.06;69.15;99761.59;1739643;81;21064;-78
2022/08/19 06:07:02;;;;;;;11.48;9.85;;;;;;;23.09;69.16;99765.29;1739976;80;21066;-78
2022/08/19 06:09:29;;;;;;;12.37;10.25;;;;;;;23.11;69.03;99769.50;1739800;80;21106;-78
2022/08/19 06:11:59;;;;;;;12.00;10.30;;;;;;;23.15;69.06;99780.71;1738732;80;21029;-78
2022/08/19 06:14:31;;;;;;;13.80;11.03;;;;;;;23.18;68.95;99787.09;1738504;80;22062;-78
2022/08/19 06:16:59;;;;;;;12.35;11.18;;;;;;;23.23;68.94;99796.00;1740160;80;21053;-79
2022/08/19 06:19:28;;;;;;;12.73;11.25;;;;;;;23.26;68.89;99809.89;1740246;80;21061;-83
2022/08/19 06:21:58;;;;;;;12.25;10.95;;;;;;;23.29;68.85;99816.27;1740288;80;21113;-84
2022/08/19 06:24:27;;;;;;;13.10;11.60;;;;;;;23.31;68.65;99822.81;1742966;80;21098;-83
2022/08/19 06:26:56;;;;;;;15.28;11.63;;;;;;;23.29;68.49;99824.29;1763855;80;21584;-82
2022/08/19 06:29:25;;;;;;;13.85;11.88;;;;;;;23.28;68.44;99828.44;1762318;80;21031;-82
2022/08/19 06:31:56;;;;;;;12.58;11.28;;;;;;;23.30;68.43;99822.45;1768979;80;21051;-83
2022/08/19 06:34:24;;;;;;;12.40;11.10;;;;;;;23.30;68.31;99827.30;1767576;80;21595;-83
2022/08/19 06:36:52;;;;;;;14.45;12.23;;;;;;;23.29;68.39;99826.13;1763693;79;21398;-82
2022/08/19 06:39:24;;;;;;;15.18;11.35;;;;;;;23.34;68.47;99831.36;1767943;80;21925;-82
2022/08/19 06:41:56;;;;;;;15.00;11.95;;;;;;;23.38;68.42;99831.88;1768465;79;21012;-83
2022/08/19 06:44:26;;;;;;;13.55;12.15;;;;;;;23.43;68.43;99831.44;1768906;80;21513;-82
2022/08/19 06:46:55;;;;;;;16.48;13.43;;;;;;;23.46;68.25;99837.81;1766631;80;21071;-82
2022/08/19 06:49:24;;;;;;;13.60;12.00;;;;;;;23.47;68.15;99840.81;1766416;80;21121;-82
2022/08/19 06:51:51;;;;;;;14.85;12.10;;;;;;;23.48;68.18;99839.34;1769214;80;21624;-83
2022/08/19 06:54:19;;;;;;;14.25;11.93;;;;;;;23.53;68.31;99838.89;1763997;80;21051;-83
2022/08/19 06:56:46;;;;;;;14.28;12.05;;;;;;;23.59;68.19;99834.25;1768566;80;21051;-81
2022/08/19 06:59:18;;;;;;;17.40;13.03;;;;;;;23.65;68.04;99834.13;1768865;80;21261;-82
2022/08/19 07:01:50;;;;;;;15.00;12.60;;;;;;;23.71;68.01;99839.72;1764704;80;21633;-81
2022/08/19 07:04:24;;;;;;;16.32;12.98;;;;;;;23.79;68.13;99843.80;1762743;80;21165;-80
2022/08/19 07:06:58;;;;;;;17.55;13.15;;;;;;;23.89;67.98;99841.52;1767437;80;21050;-82
2022/08/19 07:09:26;;;;;;;14.00;12.58;;;;;;;23.95;67.79;99844.43;1762454;80;21050;-83
2022/08/19 07:11:54;;;;;;;17.07;12.70;;;;;;;24.03;67.79;99850.34;1762180;80;22408;-82
2022/08/19 07:14:27;;;;;;;13.65;12.20;;;;;;;24.12;67.73;99848.56;1764946;80;22313;-83
2022/08/19 07:16:56;;;;;;;15.88;12.70;;;;;;;24.21;67.56;99853.79;1770667;80;21984;-83
2022/08/19 07:19:27;;;;;;;13.18;11.75;;;;;;;24.31;67.45;99854.20;1767528;80;21043;-83
2022/08/19 07:21:55;;;;;;;14.75;11.70;;;;;;;24.41;67.19;99861.09;1761082;80;21039;-81
2022/08/19 07:24:26;;;;;;;12.75;11.05;;;;;;;24.52;67.09;99861.86;1770497;80;21012;-82
2022/08/19 07:26:57;;;;;;;15.05;11.18;;;;;;;24.62;66.85;99873.31;1766952;80;21019;-83
2022/08/19 07:29:25;;;;;;;14.13;12.00;;;;;;;24.71;66.53;99879.03;1766657;79;21130;-83
2022/08/19 07:31:56;;;;;;;13.20;11.65;;;;;;;24.80;66.26;99876.72;1762712;80;21592;-82
2022/08/19 07:34:22;;;;;;;15.48;12.53;;;;;;;24.88;66.00;99882.11;1764297;80;21043;-81
2022/08/19 07:36:49;;;;;;;15.13;12.28;;;;;;;24.96;65.73;99888.52;1767952;80;21507;-82
2022/08/19 07:39:21;;;;;;;13.00;11.50;;;;;;;25.02;65.55;99894.56;1763113;80;21067;-83
2022/08/19 07:41:48;;;;;;;18.75;11.48;;;;;;;25.12;65.39;99904.66;1771249;80;21273;-81
2022/08/19 07:44:16;;;;;;;15.28;11.55;;;;;;;25.21;64.78;99909.07;1770522;79;21469;-81
2022/08/19 07:46:47;;;;;;;14.83;11.57;;;;;;;25.30;64.46;99904.56;1766724;80;22128;-82
2022/08/19 07:49:23;;;;;;;15.90;11.43;;;;;;;25.39;64.15;99903.59;1770369;80;21035;-82
2022/08/19 07:51:43;;;;;;;25.55;12.68;;;;;;;25.47;63.78;99905.43;1767303;80;21098;-82
2022/08/19 07:54:11;;;;;;;15.68;12.00;;;;;;;25.54;63.44;99908.64;1761713;80;21979;-82
2022/08/19 07:56:39;;;;;;;12.25;10.95;;;;;;;25.62;63.17;99902.45;1760895;80;21027;-82
2022/08/19 07:59:07;;;;;;;14.83;11.30;;;;;;;25.70;62.96;99897.09;1768717;80;21453;-83
2022/08/19 08:01:34;;;;;;;14.85;10.63;;;;;;;25.81;62.69;99899.95;1770972;80;21050;-81
2022/08/19 08:09:38;;;;;;;14.73;9.75;;;;;;;26.09;61.82;99899.12;1769182;80;21503;-81
2022/08/19 08:12:16;;;;;;;13.68;9.73;;;;;;;26.19;61.48;99901.65;1767952;80;21046;-81
2022/08/19 08:14:50;;;;;;;13.65;10.15;;;;;;;26.28;61.30;99897.94;1764213;80;21523;-83
2022/08/19 08:17:20;;;;;;;11.45;9.68;;;;;;;26.37;60.79;99901.44;1759642;80;21078;-81
2022/08/19 08:19:49;;;;;;;12.75;9.20;;;;;;;26.44;60.38;99908.65;1769468;80;21939;-82
2022/08/19 08:25:07;;;;;;;11.03;9.63;;;;;;;26.56;59.75;99906.46;1764762;80;21034;-82
2022/08/19 08:27:40;;;;;;;11.03;8.60;;;;;;;26.63;59.63;99908.80;1771098;80;21055;-82
2022/08/19 08:30:11;;;;;;;11.83;8.48;;;;;;;26.72;59.16;99913.64;1769961;80;21497;-83
2022/08/19 08:32:39;;;;;;;14.18;8.18;;;;;;;26.78;58.82;99908.91;1767753;80;22305;-83
2022/08/19 08:35:18;;;;;;;9.48;7.95;;;;;;;26.88;58.72;99907.34;1766116;79;21490;-81
2022/08/19 08:37:49;;;;;;;11.40;8.40;;;;;;;27.01;58.31;99906.80;1769789;79;21277;-83
2022/08/19 08:40:48;;;;;;;12.03;8.15;;;;;;;27.05;57.86;99890.66;1769591;80;21158;-80
2022/08/19 08:43:32;;;;;;;9.40;7.47;;;;;;;27.20;57.57;99896.98;1762753;80;21539;-82
2022/08/19 08:46:20;;;;;;;13.38;8.53;;;;;;;27.32;57.28;99904.13;1771116;80;21188;-82
2022/08/19 08:49:00;;;;;;;9.95;7.45;;;;;;;27.43;57.08;99899.69;1763452;80;21062;-82
2022/08/19 08:51:35;;;;;;;10.03;7.10;;;;;;;27.55;56.85;99907.70;1770083;80;21084;-81
2022/08/19 08:54:08;;;;;;;7.80;6.80;;;;;;;27.69;56.68;99902.05;1761572;80;21062;-80
2022/08/19 08:56:35;;;;;;;8.75;7.12;;;;;;;27.85;56.30;99906.98;1768285;80;21046;-81
2022/08/19 08:59:22;;;;;;;8.65;6.87;;;;;;;27.95;55.71;99907.07;1770851;80;21493;-80
2022/08/19 09:01:49;;;;;;;9.60;7.22;;;;;;;28.06;55.50;99912.54;1747663;80;21520;-82
2022/08/19 09:04:17;;;;;;;9.75;7.50;;;;;;;28.17;55.09;99922.04;1758216;81;21563;-82
2022/08/19 09:06:55;;;;;;;11.45;7.80;;;;;;;28.27;55.10;99924.46;1755583;81;21043;-82
2022/08/19 09:09:36;;;;;;;9.88;8.15;;;;;;;28.37;54.56;99916.44;1761965;81;21632;-81
2022/08/19 09:12:09;;;;;;;9.63;8.40;;;;;;;28.43;54.31;99914.90;1751086;80;21607;-82
2022/08/19 09:14:56;;;;;;;9.20;7.33;;;;;;;28.47;53.94;99909.48;1775325;80;21061;-82
2022/08/19 09:17:30;;;;;;;10.40;7.58;;;;;;;28.49;53.88;99906.09;1766979;80;21050;-82
2022/08/19 09:20:05;;;;;;;9.43;7.83;;;;;;;28.53;53.65;99897.12;1755850;81;21059;-81
2022/08/19 09:22:31;;;;;;;11.18;7.72;;;;;;;28.58;53.42;99888.80;1763147;80;21102;-82
2022/08/19 09:24:58;;;;;;;9.53;7.35;;;;;;;28.61;53.24;99883.03;1767847;80;21739;-83
2022/08/19 09:27:27;;;;;;;8.93;6.97;;;;;;;28.63;52.82;99874.25;1761160;80;21045;-82
2022/08/19 09:29:54;;;;;;;9.08;6.80;;;;;;;28.65;52.61;99860.05;1735541;82;21080;-82
2022/08/19 09:32:23;;;;;;;11.20;6.95;;;;;;;28.71;52.63;99853.06;1770344;80;21079;-82
2022/08/19 09:34:54;;;;;;;10.03;7.33;;;;;;;28.77;52.12;99860.94;1762286;80;21155;-80
2022/08/19 09:37:19;;;;;;;8.10;6.62;;;;;;;28.79;52.01;99855.66;1768597;80;22059;-80
2022/08/19 09:39:46;;;;;;;6.85;6.20;;;;;;;28.84;51.79;99855.93;1738459;82;21042;-82
2022/08/19 09:42:14;;;;;;;8.28;6.28;;;;;;;28.90;51.79;99861.95;1739247;82;21067;-82
2022/08/19 09:44:42;;;;;;;10.45;6.65;;;;;;;29.00;51.51;99869.72;1739652;82;21480;-83
2022/08/19 09:47:12;;;;;;;7.87;6.72;;;;;;;29.09;51.28;99875.35;1739533;82;21074;-80
2022/08/19 09:49:40;;;;;;;9.05;6.45;;;;;;;29.19;51.34;99876.94;1736765;82;22260;-82
2022/08/19 09:52:11;;;;;;;9.70;6.47;;;;;;;29.28;50.86;99886.58;1756705;80;21055;-82
2022/08/19 09:54:39;;;;;;;10.15;6.87;;;;;;;29.31;50.52;99900.52;1766988;80;21394;-81
2022/08/19 09:57:06;;;;;;;8.15;6.53;;;;;;;29.37;50.36;99903.48;1769819;80;21059;-81
2022/08/19 09:59:34;;;;;;;7.33;6.62;;;;;;;29.39;50.12;99904.97;1738141;82;21058;-82
2022/08/19 10:02:01;;;;;;;8.68;7.03;;;;;;;29.48;50.12;99907.03;1732427;82;21308;-83
2022/08/19 10:05:47;;;;;;;9.98;7.10;;;;;;;29.58;49.92;99899.45;1734149;82;21066;-82
2022/08/19 10:06:57;;;;;;;7.45;6.70;;;;;;;29.71;49.86;99902.81;1738921;82;29037;-80
2022/08/19 10:09:24;;;;;;;10.58;7.03;;;;;;;29.82;49.86;99887.46;1737619;82;21090;-79
2022/08/19 10:11:51;;;;;;;7.58;6.53;;;;;;;29.98;49.56;99887.16;1732783;82;21382;-82
2022/08/19 10:14:22;;;;;;;8.23;6.22;;;;;;;30.11;49.36;99878.33;1732206;82;21195;-82
2022/08/19 10:16:47;;;;;;;10.10;6.83;;;;;;;30.23;48.99;99879.47;1736644;82;29216;-81
2022/08/19 10:19:14;;;;;;;7.25;6.50;;;;;;;30.39;48.87;99884.27;1732594;82;21059;-82
2022/08/19 10:21:41;;;;;;;9.43;6.62;;;;;;;30.53;48.56;99892.77;1736673;82;20995;-82
2022/08/19 10:24:08;;;;;;;10.98;6.75;;;;;;;30.71;48.32;99900.88;1739478;82;21059;-79
2022/08/19 10:26:41;;;;;;;12.78;6.67;;;;;;;30.92;48.28;99911.63;1748966;81;21128;-81
2022/08/19 10:29:07;;;;;;;7.87;6.65;;;;;;;30.91;47.56;99908.62;1764216;81;21074;-81
2022/08/19 10:31:34;;;;;;;9.90;6.85;;;;;;;30.99;47.75;99918.44;1766884;81;21535;-81
2022/08/19 10:34:02;;;;;;;7.50;6.80;;;;;;;31.08;47.41;99919.41;1767599;79;21047;-80
2022/08/19 10:36:34;;;;;;;7.10;6.40;;;;;;;31.12;47.11;99927.94;1764522;81;22439;-81
2022/08/19 10:39:06;;;;;;;8.88;6.30;;;;;;;31.20;47.19;99922.36;1767292;80;21204;-78
2022/08/19 10:41:36;;;;;;;7.62;6.42;;;;;;;31.33;47.03;99926.99;1764644;81;21588;-82
2022/08/19 10:44:10;;;;;;;9.08;6.72;;;;;;;31.36;46.71;99925.75;1767270;79;21425;-83
2022/08/19 10:46:41;;;;;;;7.35;6.65;;;;;;;31.32;46.46;99918.56;1764027;79;21039;-81
2022/08/19 10:49:11;;;;;;;7.65;6.85;;;;;;;31.39;46.54;99915.89;1766575;80;21094;-82
2022/08/19 10:56:50;;;;;;;8.90;6.47;;;;;;;31.43;45.91;99925.30;1764487;80;21051;-82
2022/08/19 10:56:56;;;;;;;8.28;6.83;;;;;;;31.56;46.21;99922.59;1761565;79;21042;-84
2022/08/19 10:59:27;;;;;;;6.80;6.10;;;;;;;31.71;45.77;99925.14;1767312;81;21051;-81
2022/08/19 11:02:01;;;;;;;7.75;6.83;;;;;;;31.88;45.63;99926.40;1767758;81;21086;-81
2022/08/19 11:04:29;;;;;;;9.55;6.58;;;;;;;31.99;45.30;99927.69;1746468;81;21005;-83
2022/08/19 11:06:56;;;;;;;9.78;6.55;;;;;;;31.93;44.94;99917.69;1765830;80;21496;-82
2022/08/19 11:09:30;;;;;;;7.37;6.62;;;;;;;31.79;44.89;99920.88;1764839;81;21505;-83
2022/08/19 11:11:56;;;;;;;11.22;7.22;;;;;;;31.67;44.98;99916.56;1763202;81;21043;-82
2022/08/19 11:14:25;;;;;;;7.55;6.83;;;;;;;31.75;44.90;99913.66;1763364;79;21039;-82
2022/08/19 11:16:55;;;;;;;9.68;6.92;;;;;;;31.94;44.88;99915.28;1767088;80;21208;-82
2022/08/19 11:19:23;;;;;;;8.78;6.78;;;;;;;32.13;44.74;99920.39;1765065;79;21044;-82
2022/08/19 11:21:51;;;;;;;;;;;;;;;32.35;44.89;99912.34;1769045;81;21051;-83
2022/08/19 11:24:22;;;;;;;9.23;6.97;;;;;;;32.64;44.27;99908.86;1764236;81;20204;-80
2022/08/19 11:26:52;;;;;;;10.23;6.58;;;;;;;32.75;44.15;99916.86;1765129;80;21012;-83
2022/08/19 11:29:21;;;;;;;10.10;6.47;;;;;;;32.94;44.04;99918.67;1762491;80;21135;-82
2022/08/19 11:31:50;;;;;;;7.30;6.53;;;;;;;33.18;43.78;99919.86;1758775;80;21722;-82
2022/08/19 11:34:25;;;;;;;8.45;7.10;;;;;;;33.34;43.68;99914.46;1767335;80;20998;-82
2022/08/19 11:36:52;;;;;;;9.50;7.00;;;;;;;33.51;43.28;99910.70;1770488;80;21059;-82
2022/08/19 11:39:22;;;;;;;7.62;6.83;;;;;;;33.63;43.21;99909.50;1763924;80;22323;-83
2022/08/19 11:41:49;;;;;;;7.92;6.83;;;;;;;33.72;42.96;99918.51;1770012;80;21953;-82
2022/08/19 11:44:16;;;;;;;10.18;7.20;;;;;;;33.73;42.65;99922.09;1767709;80;21023;-84
2022/08/19 11:46:46;;;;;;;8.30;6.87;;;;;;;33.73;42.45;99918.84;1767630;79;21102;-83
2022/08/19 11:49:19;;;;;;;8.40;7.47;;;;;;;33.70;42.41;99927.43;1770737;80;22068;-81
2022/08/19 11:51:49;;;;;;;8.63;7.60;;;;;;;33.57;42.17;99926.69;1760678;80;21135;-83
2022/08/19 11:54:17;;;;;;;9.85;7.60;;;;;;;33.41;42.05;99932.07;1751469;80;21095;-83
2022/08/19 11:56:45;;;;;;;9.60;7.78;;;;;;;33.26;41.95;99932.37;1769224;79;22224;-81
2022/08/19 11:59:12;;;;;;;10.43;7.90;;;;;;;33.17;41.92;99924.14;1767299;79;21058;-83